Time;durP1;ratioP1;P1;durP2;ratioP2;P2;SDS_P1;SDS_P2;PMS_P1;PMS_P2;Temp;Humidity;BMP_temperature;BMP_pressure;BME280_temperature;BME280_humidity;BME280_pressure;Samples;Min_cycle;Max_cycle;Signal;HPM_P1;HPM_P2
2022/05/21 00:01:49;;;;;;;7.23;5.17;;;14.40;99.90;;;;;;5051951;28;20268;-51
2022/05/21 00:04:17;;;;;;;6.67;5.27;;;14.30;99.90;;;;;;5052546;28;20218;-51
2022/05/21 00:06:45;;;;;;;6.37;5.20;;;14.30;99.90;;;;;;5052444;28;20209;-55
2022/05/21 00:09:13;;;;;;;7.77;4.57;;;14.20;99.90;;;;;;5058118;28;20258;-51
2022/05/21 00:11:41;;;;;;;5.13;4.43;;;14.10;99.90;;;;;;5072154;28;20271;-52
2022/05/21 00:14:09;;;;;;;5.73;4.40;;;14.10;99.90;;;;;;5072069;28;20244;-51
2022/05/21 00:16:37;;;;;;;5.37;3.80;;;14.00;99.90;;;;;;5072177;28;20255;-50
2022/05/21 00:19:07;;;;;;;4.47;3.70;;;14.00;99.90;;;;;;5072083;28;20205;-51
2022/05/21 00:21:35;;;;;;;6.33;3.50;;;14.00;99.90;;;;;;5071463;28;20224;-50
2022/05/21 00:24:03;;;;;;;2.93;2.73;;;13.90;99.90;;;;;;5071519;28;20930;-51
2022/05/21 00:26:31;;;;;;;3.33;3.00;;;13.90;99.90;;;;;;5071055;28;20209;-51
2022/05/21 00:28:59;;;;;;;4.43;3.30;;;13.80;99.90;;;;;;5071408;28;20256;-51
2022/05/21 00:31:27;;;;;;;4.97;4.43;;;13.80;99.90;;;;;;5070713;28;20237;-50
2022/05/21 00:33:56;;;;;;;6.73;4.00;;;13.80;99.90;;;;;;5070738;28;20205;-50
2022/05/21 00:36:25;;;;;;;6.07;3.93;;;13.70;99.90;;;;;;5071282;28;20244;-51
2022/05/21 00:38:53;;;;;;;5.43;4.00;;;13.70;99.90;;;;;;5071515;28;20220;-51
2022/05/21 00:41:21;;;;;;;4.80;3.87;;;13.70;99.90;;;;;;5071554;28;20298;-50
2022/05/21 00:43:52;;;;;;;3.60;3.23;;;13.70;99.90;;;;;;5070823;28;20212;-51
2022/05/21 00:46:22;;;;;;;4.77;3.20;;;13.70;99.90;;;;;;5071298;28;20263;-51
2022/05/21 00:48:57;;;;;;;5.00;3.70;;;13.70;99.90;;;;;;5071539;28;20197;-51
2022/05/21 00:51:30;;;;;;;6.03;3.40;;;13.80;99.90;;;;;;5051375;28;20313;-51
2022/05/21 00:54:01;;;;;;;5.43;4.53;;;13.70;99.90;;;;;;5059309;28;20197;-51
2022/05/21 00:56:32;;;;;;;8.30;4.40;;;13.70;99.90;;;;;;5070846;28;20244;-51
2022/05/21 01:01:57;;;;;;;4.90;4.30;;;13.70;99.90;;;;;;5050009;28;20275;-50
2022/05/21 01:04:27;;;;;;;5.00;4.43;;;13.70;99.90;;;;;;5070826;28;20718;-49
2022/05/21 01:06:59;;;;;;;5.90;4.90;;;13.70;99.90;;;;;;5060372;28;20217;-50
2022/05/21 01:09:27;;;;;;;5.10;4.60;;;13.70;99.90;;;;;;5058761;28;20235;-51
2022/05/21 01:11:57;;;;;;;5.33;4.60;;;13.70;99.90;;;;;;5070456;28;20282;-51
2022/05/21 01:14:25;;;;;;;6.90;4.90;;;13.60;99.90;;;;;;5070712;28;20277;-51
2022/05/21 01:16:53;;;;;;;5.97;4.50;;;13.60;99.90;;;;;;5070611;28;20249;-51
2022/05/21 01:19:21;;;;;;;5.20;4.47;;;13.50;99.90;;;;;;5070538;28;20300;-51
2022/05/21 01:21:49;;;;;;;6.10;4.13;;;13.50;99.90;;;;;;5070214;28;20323;-51
2022/05/21 01:24:19;;;;;;;4.50;4.10;;;13.50;99.90;;;;;;5070179;28;20209;-51
2022/05/21 01:26:47;;;;;;;6.53;4.47;;;13.40;99.90;;;;;;5070448;28;20628;-50
2022/05/21 01:29:20;;;;;;;4.80;4.30;;;13.40;99.90;;;;;;5068849;28;20255;-51
2022/05/21 01:31:50;;;;;;;4.50;4.10;;;13.50;99.90;;;;;;5049940;28;20349;-51
2022/05/21 01:34:20;;;;;;;5.37;4.07;;;13.40;99.90;;;;;;5049869;28;20205;-51
2022/05/21 01:36:48;;;;;;;4.47;4.00;;;13.40;99.90;;;;;;5059049;28;20241;-50
2022/05/21 01:39:16;;;;;;;6.00;4.73;;;13.50;99.90;;;;;;5070719;28;20243;-50
2022/05/21 01:41:48;;;;;;;6.17;4.13;;;13.60;99.90;;;;;;5070000;28;20252;-51
2022/05/21 01:47:13;;;;;;;4.40;3.47;;;13.70;99.90;;;;;;5022404;28;20204;-51
2022/05/21 01:49:43;;;;;;;6.63;4.30;;;13.70;99.90;;;;;;5070030;28;20217;-51
2022/05/21 01:52:12;;;;;;;6.30;4.20;;;13.70;99.90;;;;;;5069327;28;20225;-51
2022/05/21 01:54:40;;;;;;;6.57;3.77;;;13.70;99.90;;;;;;5070108;28;20304;-51
2022/05/21 01:57:10;;;;;;;6.47;4.00;;;13.70;99.90;;;;;;5070218;28;20266;-51
2022/05/21 01:59:38;;;;;;;4.53;3.53;;;13.70;99.90;;;;;;5050801;28;20214;-51
2022/05/21 02:02:06;;;;;;;6.17;4.33;;;13.80;99.90;;;;;;5049610;28;20251;-50
2022/05/21 02:04:36;;;;;;;5.87;4.10;;;13.80;99.90;;;;;;5050123;28;20245;-51
2022/05/21 02:07:04;;;;;;;5.13;4.13;;;13.80;99.90;;;;;;5060903;28;20216;-51
2022/05/21 02:09:32;;;;;;;5.47;3.70;;;13.80;99.90;;;;;;5069822;28;20233;-51
2022/05/21 02:12:01;;;;;;;5.90;4.07;;;13.80;99.90;;;;;;5068915;28;20228;-51
2022/05/21 02:14:30;;;;;;;7.17;4.37;;;13.70;99.90;;;;;;5069580;28;20209;-51
2022/05/21 02:16:58;;;;;;;5.77;4.30;;;13.60;99.90;;;;;;5069996;28;20637;-51
2022/05/21 02:19:26;;;;;;;6.13;4.50;;;13.60;99.90;;;;;;5069791;28;20208;-50
2022/05/21 02:21:56;;;;;;;10.53;4.73;;;13.60;99.90;;;;;;5069153;28;20256;-51
2022/05/21 02:24:24;;;;;;;4.40;4.00;;;13.60;99.90;;;;;;5069388;28;20303;-51
2022/05/21 02:26:53;;;;;;;5.77;4.23;;;13.60;99.90;;;;;;5069302;28;20236;-50
2022/05/21 02:29:21;;;;;;;6.10;4.30;;;13.60;99.90;;;;;;5069459;28;20209;-50
2022/05/21 02:31:51;;;;;;;5.93;4.63;;;13.60;99.90;;;;;;5068660;28;20278;-51
2022/05/21 02:34:19;;;;;;;6.27;4.07;;;13.70;99.90;;;;;;5069546;28;20677;-50
2022/05/21 02:39:32;;;;;;;4.33;3.90;;;13.70;99.90;;;;;;5069697;28;20262;-50
2022/05/21 02:42:02;;;;;;;6.37;4.50;;;13.50;99.90;;;;;;5069252;28;20209;-50
2022/05/21 02:44:30;;;;;;;7.97;4.00;;;13.40;99.90;;;;;;5069367;28;20258;-49
2022/05/21 02:47:00;;;;;;;5.93;4.10;;;13.40;99.90;;;;;;5073354;28;20248;-51
2022/05/21 02:49:28;;;;;;;4.73;3.87;;;13.30;99.90;;;;;;5073276;28;20205;-51
2022/05/21 02:51:57;;;;;;;5.50;3.97;;;13.30;99.90;;;;;;5073104;28;20252;-50
2022/05/21 02:54:25;;;;;;;4.40;3.90;;;13.20;99.90;;;;;;5073624;28;20213;-52
2022/05/21 02:56:53;;;;;;;4.97;4.47;;;13.10;99.90;;;;;;5073337;28;20236;-51
2022/05/21 02:59:21;;;;;;;6.83;4.33;;;13.00;99.90;;;;;;5073272;28;20212;-51
2022/05/21 03:01:49;;;;;;;6.13;4.20;;;12.90;99.90;;;;;;5072478;28;20284;-51
2022/05/21 03:04:19;;;;;;;4.30;3.90;;;12.80;99.90;;;;;;5072966;28;20243;-51
2022/05/21 03:06:47;;;;;;;6.47;4.10;;;12.70;99.90;;;;;;5072753;28;20223;-51
2022/05/21 03:12:00;;;;;;;6.30;4.67;;;12.60;99.90;;;;;;5052791;28;20280;-50
2022/05/21 03:14:28;;;;;;;6.23;4.53;;;12.50;99.90;;;;;;5052419;28;20228;-51
2022/05/21 03:16:59;;;;;;;5.00;4.53;;;12.50;99.90;;;;;;5052984;28;20237;-50
2022/05/21 03:19:30;;;;;;;5.50;4.87;;;12.40;99.90;;;;;;5052968;28;20194;-51
2022/05/21 03:21:59;;;;;;;6.63;4.60;;;12.40;99.90;;;;;;5052782;28;20259;-50
2022/05/21 03:24:28;;;;;;;6.53;4.60;;;12.40;99.90;;;;;;5052817;28;20205;-51
2022/05/21 03:26:56;;;;;;;6.20;4.47;;;12.40;99.90;;;;;;5052649;28;20206;-50
2022/05/21 03:29:25;;;;;;;6.57;4.70;;;12.40;99.90;;;;;;5052471;28;20262;-51
2022/05/21 03:31:53;;;;;;;6.63;5.17;;;12.40;99.90;;;;;;5052145;28;20229;-50
2022/05/21 03:34:21;;;;;;;5.10;4.60;;;12.40;99.90;;;;;;5052791;28;20229;-51
2022/05/21 03:36:51;;;;;;;6.67;5.23;;;12.40;99.90;;;;;;5065036;28;20201;-51
2022/05/21 03:39:19;;;;;;;7.50;6.03;;;12.40;99.90;;;;;;5071253;28;20209;-49
2022/05/21 03:41:47;;;;;;;7.00;6.07;;;12.40;99.90;;;;;;5070609;28;20271;-50
2022/05/21 03:44:15;;;;;;;6.43;5.67;;;12.40;99.90;;;;;;5070806;28;20208;-51
2022/05/21 03:46:43;;;;;;;6.77;5.70;;;12.50;99.90;;;;;;5071313;28;20213;-51
2022/05/21 03:49:11;;;;;;;7.13;5.47;;;12.50;99.90;;;;;;5070699;28;20240;-51
2022/05/21 03:51:39;;;;;;;5.50;5.00;;;12.60;99.90;;;;;;5070439;28;20229;-50
2022/05/21 03:54:08;;;;;;;5.90;5.40;;;12.60;99.90;;;;;;5070102;28;20244;-51
2022/05/21 03:56:37;;;;;;;7.50;5.30;;;12.60;99.90;;;;;;5070034;28;20213;-51
2022/05/21 03:59:05;;;;;;;7.23;6.07;;;12.70;99.90;;;;;;5070424;28;20241;-51
2022/05/21 04:01:33;;;;;;;6.47;5.87;;;12.60;99.90;;;;;;5070078;28;20256;-51
2022/05/21 04:04:01;;;;;;;7.33;6.20;;;12.60;99.90;;;;;;5070254;28;20244;-51
2022/05/21 04:06:29;;;;;;;7.40;6.67;;;12.50;99.90;;;;;;5069555;28;20236;-51
2022/05/21 04:08:57;;;;;;;6.90;5.53;;;12.60;99.90;;;;;;5070230;28;20284;-51
2022/05/21 04:11:26;;;;;;;6.80;6.20;;;12.60;99.90;;;;;;5070631;28;20625;-51
2022/05/21 04:13:54;;;;;;;9.13;6.00;;;12.60;99.90;;;;;;5070175;28;20292;-51
2022/05/21 04:16:22;;;;;;;7.03;5.80;;;12.70;99.90;;;;;;5070552;28;20690;-50
2022/05/21 04:18:50;;;;;;;7.40;6.57;;;12.70;99.90;;;;;;5071146;28;20200;-51
2022/05/21 04:21:18;;;;;;;7.40;6.67;;;12.70;99.90;;;;;;5070073;28;20300;-51
2022/05/21 04:23:46;;;;;;;7.27;6.67;;;12.70;99.90;;;;;;5070532;28;20686;-51
2022/05/21 04:26:14;;;;;;;7.40;6.70;;;12.70;99.90;;;;;;5070609;28;20300;-51
2022/05/21 04:28:44;;;;;;;9.20;7.10;;;12.70;99.90;;;;;;5070519;28;20721;-51
2022/05/21 04:31:12;;;;;;;7.90;7.10;;;12.80;99.90;;;;;;5070847;28;20229;-52
2022/05/21 04:33:40;;;;;;;9.87;7.13;;;12.80;99.90;;;;;;5059699;28;20272;-50
2022/05/21 04:36:20;;;;;;;10.20;7.00;;;12.90;99.90;;;;;;5060029;28;20205;-51
2022/05/21 04:38:49;;;;;;;8.37;7.43;;;12.90;99.90;;;;;;5019058;28;1104996;-51
2022/05/21 04:41:17;;;;;;;8.90;8.00;;;12.90;99.90;;;;;;5056868;28;20236;-51
2022/05/21 04:43:47;;;;;;;8.57;7.33;;;13.00;99.90;;;;;;5048846;28;20229;-51
2022/05/21 04:46:16;;;;;;;10.43;8.03;;;13.00;99.90;;;;;;5052807;28;20362;-51
2022/05/21 04:48:45;;;;;;;9.20;7.80;;;13.00;99.90;;;;;;5064305;28;20262;-51
2022/05/21 04:51:31;;;;;;;8.77;7.87;;;13.00;99.90;;;;;;5069259;28;20240;-51
2022/05/21 04:53:59;;;;;;;8.87;8.07;;;13.10;99.90;;;;;;5064277;28;20209;-49
2022/05/21 04:56:27;;;;;;;10.17;8.73;;;13.10;99.90;;;;;;5050497;28;20556;-51
2022/05/21 04:59:12;;;;;;;12.00;8.93;;;13.20;99.90;;;;;;5054159;28;20662;-51
2022/05/21 05:01:43;;;;;;;10.60;8.53;;;13.20;99.90;;;;;;5058219;28;20709;-51
2022/05/21 05:04:11;;;;;;;10.77;8.67;;;13.20;99.90;;;;;;5055351;28;20198;-51
2022/05/21 05:06:40;;;;;;;12.43;9.13;;;13.30;99.90;;;;;;5052481;28;20620;-52
2022/05/21 05:09:09;;;;;;;10.33;8.47;;;13.40;99.90;;;;;;5050667;28;20283;-51
2022/05/21 05:11:37;;;;;;;10.10;7.63;;;13.50;99.90;;;;;;5049533;28;20308;-51
2022/05/21 05:14:05;;;;;;;10.77;8.30;;;13.50;99.90;;;;;;5054853;28;20729;-52
2022/05/21 05:16:35;;;;;;;9.97;8.20;;;13.50;99.90;;;;;;5051991;28;20210;-50
2022/05/21 05:19:03;;;;;;;11.00;8.70;;;13.50;99.90;;;;;;5050505;28;20609;-51
2022/05/21 05:21:31;;;;;;;10.90;9.07;;;13.60;99.90;;;;;;5050287;28;20268;-50
2022/05/21 05:23:59;;;;;;;10.40;9.30;;;13.50;99.90;;;;;;5049725;28;20658;-51
2022/05/21 05:26:27;;;;;;;13.00;10.03;;;13.50;99.90;;;;;;5058392;28;20240;-51
2022/05/21 05:28:55;;;;;;;13.23;10.50;;;13.50;99.90;;;;;;5052381;28;20657;-52
2022/05/21 05:31:23;;;;;;;10.67;9.57;;;13.50;99.90;;;;;;5053022;28;20229;-51
2022/05/21 05:33:54;;;;;;;12.47;9.17;;;13.50;99.90;;;;;;5049145;28;20239;-50
2022/05/21 05:36:22;;;;;;;12.73;9.83;;;13.50;99.90;;;;;;5052869;28;20205;-50
2022/05/21 05:38:50;;;;;;;10.93;9.60;;;13.60;99.90;;;;;;5049495;28;20654;-50
2022/05/21 05:41:18;;;;;;;10.87;7.97;;;13.60;99.90;;;;;;5046751;28;20221;-52
2022/05/21 05:43:53;;;;;;;11.20;8.93;;;13.60;99.90;;;;;;5046845;28;20202;-51
2022/05/21 05:46:22;;;;;;;13.23;8.40;;;13.60;99.90;;;;;;5049009;28;20244;-50
2022/05/21 05:48:51;;;;;;;11.03;8.40;;;13.60;99.90;;;;;;5051019;28;20674;-51
2022/05/21 05:51:21;;;;;;;10.33;7.90;;;13.60;99.90;;;;;;5048783;28;21061;-52
2022/05/21 05:53:50;;;;;;;11.60;7.77;;;13.60;99.90;;;;;;5051374;28;20244;-51
2022/05/21 05:56:18;;;;;;;11.57;7.00;;;13.70;99.90;;;;;;5052068;28;20221;-50
2022/05/21 06:01:33;;;;;;;10.13;5.87;;;13.60;99.90;;;;;;5068478;28;20307;-50
2022/05/21 06:04:01;;;;;;;7.93;5.43;;;13.70;99.90;;;;;;5050214;28;20198;-50
2022/05/21 06:06:31;;;;;;;9.90;5.50;;;13.70;99.90;;;;;;5048985;28;20248;-50
2022/05/21 06:09:00;;;;;;;10.40;5.67;;;13.70;99.90;;;;;;5053523;28;20190;-51
2022/05/21 06:11:28;;;;;;;6.70;5.10;;;13.80;99.90;;;;;;5069587;28;20229;-51
2022/05/21 06:13:56;;;;;;;10.53;4.90;;;13.90;99.90;;;;;;5069026;28;20272;-51
2022/05/21 06:16:24;;;;;;;7.60;4.60;;;13.90;99.90;;;;;;5069502;28;20709;-51
2022/05/21 06:18:52;;;;;;;10.97;4.67;;;13.80;99.90;;;;;;5069577;28;20231;-50
2022/05/21 06:21:20;;;;;;;7.93;4.40;;;13.80;99.90;;;;;;5068962;28;20780;-50
2022/05/21 06:23:49;;;;;;;9.70;4.70;;;13.80;99.90;;;;;;5057329;28;20209;-50
2022/05/21 06:26:18;;;;;;;4.33;3.93;;;13.80;99.90;;;;;;5049346;28;20206;-51
2022/05/21 06:28:46;;;;;;;7.30;4.60;;;13.90;99.90;;;;;;5049645;28;20213;-51
2022/05/21 06:31:14;;;;;;;6.17;4.00;;;13.90;99.90;;;;;;5048286;28;20267;-50
2022/05/21 06:33:42;;;;;;;8.93;4.27;;;14.00;99.90;;;;;;5047727;28;20233;-51
2022/05/21 06:36:14;;;;;;;7.20;4.40;;;14.10;99.90;;;;;;5048010;28;20303;-50
2022/05/21 06:38:43;;;;;;;6.47;3.87;;;14.10;99.90;;;;;;5048554;28;20632;-50
2022/05/21 06:41:13;;;;;;;6.67;3.80;;;14.10;99.90;;;;;;5049052;28;20233;-50
2022/05/21 06:43:48;;;;;;;4.80;3.50;;;14.20;99.90;;;;;;5048363;28;20288;-51
2022/05/21 06:46:16;;;;;;;6.00;3.60;;;14.20;99.90;;;;;;5048763;28;20229;-53
2022/05/21 06:48:44;;;;;;;3.63;3.33;;;14.20;99.90;;;;;;5049442;28;20206;-51
2022/05/21 06:51:12;;;;;;;4.87;3.43;;;14.20;99.90;;;;;;5054775;28;20282;-51
2022/05/21 06:53:40;;;;;;;6.07;3.40;;;14.20;99.90;;;;;;5069282;28;20270;-52
2022/05/21 06:56:10;;;;;;;7.10;3.50;;;14.20;99.90;;;;;;5069273;28;20984;-49
2022/05/21 06:58:40;;;;;;;6.07;3.73;;;14.20;99.90;;;;;;5069519;28;20307;-51
2022/05/21 07:01:09;;;;;;;5.93;3.63;;;14.20;99.90;;;;;;5069247;28;20228;-51
2022/05/21 07:03:37;;;;;;;6.10;3.30;;;14.10;99.90;;;;;;5069009;28;20211;-50
2022/05/21 07:08:52;;;;;;;6.57;3.50;;;14.10;99.90;;;;;;5055086;28;20201;-51
2022/05/21 07:11:20;;;;;;;9.03;3.87;;;14.20;99.90;;;;;;5047297;28;20254;-50
2022/05/21 07:13:49;;;;;;;9.03;3.60;;;14.20;99.90;;;;;;5064697;28;20245;-51
2022/05/21 07:16:17;;;;;;;5.70;3.97;;;14.20;99.90;;;;;;5056865;28;20255;-50
2022/05/21 07:18:46;;;;;;;6.33;4.13;;;14.30;99.90;;;;;;5068918;28;20233;-51
2022/05/21 07:21:15;;;;;;;5.63;4.33;;;14.30;99.90;;;;;;5065545;28;20229;-50
2022/05/21 07:23:44;;;;;;;11.93;5.10;;;14.30;99.90;;;;;;5065506;28;20739;-50
2022/05/21 07:26:12;;;;;;;10.80;5.17;;;14.30;99.90;;;;;;5068185;28;20670;-50
2022/05/21 07:28:40;;;;;;;9.63;4.80;;;14.20;99.90;;;;;;5066233;28;20678;-50
2022/05/21 07:31:10;;;;;;;9.23;4.70;;;14.20;99.90;;;;;;5069245;28;20216;-51
2022/05/21 07:33:40;;;;;;;8.47;4.93;;;14.20;99.90;;;;;;5070178;28;20216;-51
2022/05/21 07:36:08;;;;;;;8.77;4.60;;;14.20;99.90;;;;;;5056263;28;20209;-51
2022/05/21 07:38:37;;;;;;;6.67;3.93;;;14.30;99.90;;;;;;5069525;28;20308;-51
2022/05/21 07:41:06;;;;;;;6.50;4.70;;;14.30;99.90;;;;;;5070854;28;20300;-51
2022/05/21 07:43:34;;;;;;;9.07;4.80;;;14.40;99.90;;;;;;5071431;28;20240;-51
2022/05/21 07:46:02;;;;;;;6.57;3.73;;;14.40;99.90;;;;;;5066541;28;20609;-51
2022/05/21 07:48:32;;;;;;;6.60;4.47;;;14.50;99.90;;;;;;5068987;28;20193;-51
2022/05/21 07:51:07;;;;;;;11.87;4.93;;;14.50;99.90;;;;;;5067732;28;20476;-49
2022/05/21 07:53:37;;;;;;;8.03;4.30;;;14.60;99.90;;;;;;5069241;28;20208;-50
2022/05/21 07:56:10;;;;;;;6.67;4.70;;;14.70;99.90;;;;;;5069893;28;20244;-51
2022/05/21 07:58:39;;;;;;;8.83;4.63;;;14.80;99.90;;;;;;5069508;28;20212;-51
2022/05/21 08:01:10;;;;;;;7.70;4.23;;;14.90;99.90;;;;;;5067673;28;20750;-51
2022/05/21 08:03:47;;;;;;;10.13;5.00;;;14.90;99.90;;;;;;5066352;28;20314;-50
2022/05/21 08:06:15;;;;;;;8.93;4.97;;;14.90;99.90;;;;;;5062999;28;20240;-50
2022/05/21 08:08:43;;;;;;;10.47;4.60;;;14.90;99.90;;;;;;5067699;28;20681;-51
2022/05/21 08:11:12;;;;;;;6.90;4.87;;;15.00;99.90;;;;;;5070322;28;20233;-51
2022/05/21 08:13:41;;;;;;;9.05;5.18;;;15.00;99.90;;;;;;5070223;28;20208;-50
2022/05/21 08:16:09;;;;;;;8.27;6.00;;;15.10;99.90;;;;;;5070932;28;20304;-50
2022/05/21 08:18:37;;;;;;;8.10;5.35;;;15.30;99.90;;;;;;5068334;28;20590;-51
2022/05/21 08:21:07;;;;;;;7.37;4.90;;;15.50;99.90;;;;;;5063675;28;20229;-50
2022/05/21 08:29:07;;;;;;;10.30;5.68;;;15.40;99.90;;;;;;5070221;28;20221;-51
2022/05/21 08:31:35;;;;;;;11.52;6.70;;;15.30;99.90;;;;;;5069022;28;20236;-51
2022/05/21 08:34:03;;;;;;;9.90;6.05;;;15.30;99.90;;;;;;5067567;28;20252;-51
2022/05/21 08:36:33;;;;;;;11.07;6.20;;;15.20;99.90;;;;;;5062092;28;20210;-50
2022/05/21 08:39:01;;;;;;;13.02;5.97;;;15.10;99.90;;;;;;5059240;28;20240;-51
2022/05/21 08:41:31;;;;;;;10.77;5.55;;;15.20;99.90;;;;;;5064964;28;20225;-51
2022/05/21 08:44:05;;;;;;;8.95;6.78;;;15.40;99.90;;;;;;5061254;28;20838;-52
2022/05/21 08:46:45;;;;;;;10.60;6.38;;;15.70;99.90;;;;;;5070008;28;20243;-51
2022/05/21 08:49:22;;;;;;;9.95;5.95;;;16.30;99.90;;;;;;5069902;28;20262;-51
2022/05/21 08:51:56;;;;;;;10.15;5.68;;;16.80;99.90;;;;;;5067588;28;20725;-51
2022/05/21 08:54:31;;;;;;;8.63;5.72;;;17.30;99.90;;;;;;5070362;28;20304;-52
2022/05/21 08:56:59;;;;;;;8.85;5.50;;;17.70;99.90;;;;;;5070080;28;20285;-51
2022/05/21 08:59:31;;;;;;;9.43;5.72;;;17.70;99.90;;;;;;5070111;28;20565;-49
2022/05/21 09:02:00;;;;;;;9.57;5.95;;;17.50;99.90;;;;;;5065838;28;20626;-51
2022/05/21 09:04:30;;;;;;;9.13;5.38;;;17.50;99.90;;;;;;5070147;28;20587;-51
2022/05/21 09:07:03;;;;;;;10.38;6.13;;;17.80;99.90;;;;;;5070216;28;20705;-52
2022/05/21 09:09:49;;;;;;;16.50;5.93;;;18.20;99.90;;;;;;5065969;28;20208;-51
2022/05/21 09:12:21;;;;;;;9.63;6.05;;;18.70;99.90;;;;;;5069622;28;20270;-51
2022/05/21 09:14:53;;;;;;;7.45;5.82;;;18.40;99.90;;;;;;5069619;28;20271;-51
2022/05/21 09:17:24;;;;;;;8.05;5.88;;;18.30;99.90;;;;;;5063065;28;20670;-51
2022/05/21 09:19:55;;;;;;;7.97;6.10;;;18.30;99.90;;;;;;5064815;28;20259;-51
2022/05/21 09:22:31;;;;;;;10.40;6.13;;;18.10;99.90;;;;;;5068659;28;20270;-51
2022/05/21 09:25:20;;;;;;;7.97;5.68;;;17.80;99.90;;;;;;5064707;28;20201;-52
2022/05/21 09:27:49;;;;;;;9.38;5.22;;;17.50;99.90;;;;;;5067480;28;20221;-51
2022/05/21 09:30:23;;;;;;;7.68;5.78;;;17.30;99.90;;;;;;5067640;28;20241;-51
2022/05/21 09:32:56;;;;;;;7.82;6.20;;;17.00;99.90;;;;;;5066789;28;20209;-51
2022/05/21 09:35:27;;;;;;;6.28;5.53;;;16.90;99.90;;;;;;5067135;28;20228;-51
2022/05/21 09:37:56;;;;;;;8.82;6.38;;;17.20;99.90;;;;;;5067744;28;20688;-51
2022/05/21 09:40:31;;;;;;;8.15;5.70;;;17.30;99.90;;;;;;5068702;28;20262;-51
2022/05/21 09:45:48;;;;;;;9.73;6.15;;;17.40;99.90;;;;;;5043791;28;20240;-51
2022/05/21 09:48:19;;;;;;;10.50;6.35;;;17.60;99.90;;;;;;5069491;28;20304;-51
2022/05/21 09:50:51;;;;;;;10.75;7.15;;;17.60;99.90;;;;;;5068864;28;20324;-51
2022/05/21 09:53:36;;;;;;;10.63;6.28;;;17.70;99.90;;;;;;5068627;28;20669;-52
2022/05/21 09:56:08;;;;;;;10.38;6.80;;;17.80;99.90;;;;;;5069816;28;20319;-51
2022/05/21 09:58:39;;;;;;;9.93;6.88;;;17.70;99.90;;;;;;5065530;28;20700;-51
2022/05/21 10:01:10;;;;;;;9.90;6.63;;;17.70;99.90;;;;;;5068669;28;20267;-51
2022/05/21 10:03:46;;;;;;;10.27;7.07;;;17.70;99.90;;;;;;5068604;28;20270;-51
2022/05/21 10:06:26;;;;;;;10.40;6.82;;;18.00;99.90;;;;;;5068573;28;20665;-50
2022/05/21 10:11:57;;;;;;;14.20;6.93;;;18.20;99.90;;;;;;5067132;28;20693;-50
2022/05/21 10:14:32;;;;;;;8.45;6.88;;;18.10;99.90;;;;;;5068905;28;20571;-51
2022/05/21 10:17:03;;;;;;;9.93;7.20;;;17.90;99.90;;;;;;5069439;28;20236;-51
2022/05/21 10:19:38;;;;;;;13.85;7.22;;;17.80;99.90;;;;;;5068416;28;20870;-50
2022/05/21 10:22:18;;;;;;;8.15;6.93;;;18.30;99.90;;;;;;5063598;28;20258;-51
2022/05/21 10:25:05;;;;;;;9.88;6.63;;;18.40;99.90;;;;;;5065273;28;20730;-51
2022/05/21 10:28:02;;;;;;;8.60;6.43;;;18.50;99.90;;;;;;5069238;28;20708;-51
2022/05/21 10:30:41;;;;;;;9.80;6.28;;;18.30;99.90;;;;;;5068328;28;20233;-52
2022/05/21 10:33:19;;;;;;;8.90;6.15;;;18.20;99.90;;;;;;5064915;28;20666;-52
2022/05/21 10:35:58;;;;;;;8.60;6.57;;;18.10;99.90;;;;;;5061266;28;20224;-50
2022/05/21 10:38:42;;;;;;;8.02;6.32;;;18.10;99.90;;;;;;5058775;28;20213;-51
2022/05/21 10:41:23;;;;;;;7.97;5.95;;;18.20;99.90;;;;;;5065219;28;20264;-51
2022/05/21 10:44:03;;;;;;;10.07;6.55;;;18.20;99.90;;;;;;5062493;28;20204;-51
2022/05/21 10:46:44;;;;;;;11.13;6.35;;;18.60;99.90;;;;;;5052490;28;20201;-51
2022/05/21 10:49:44;;;;;;;8.60;5.90;;;18.70;99.90;;;;;;5053917;28;20987;-51
2022/05/21 10:52:15;;;;;;;8.95;6.65;;;18.70;99.90;;;;;;5060485;28;20208;-51
2022/05/21 10:55:01;;;;;;;9.60;6.07;;;18.70;99.90;;;;;;5060314;28;20209;-51
2022/05/21 10:57:43;;;;;;;8.63;5.93;;;18.50;99.90;;;;;;5052143;28;20296;-51
2022/05/21 11:00:16;;;;;;;6.72;5.85;;;18.40;99.90;;;;;;5064151;28;20845;-51
2022/05/21 11:03:21;;;;;;;7.18;6.47;;;18.50;99.90;;;;;;5066283;28;20294;-51
2022/05/21 11:06:09;;;;;;;6.53;5.88;;;19.00;99.90;;;;;;5066809;28;20216;-51
2022/05/21 11:08:43;;;;;;;7.93;6.03;;;19.00;99.90;;;;;;5069964;28;20250;-51
2022/05/21 11:11:25;;;;;;;9.85;6.05;;;19.20;99.90;;;;;;5054456;28;20228;-51
2022/05/21 11:14:01;;;;;;;11.95;5.53;;;19.60;99.90;;;;;;5056236;28;20258;-51
2022/05/21 11:16:39;;;;;;;9.38;5.43;;;19.70;99.90;;;;;;5061033;28;20225;-52
2022/05/21 11:19:14;;;;;;;6.30;5.25;;;19.40;99.90;;;;;;5058923;28;20302;-51
2022/05/21 11:21:47;;;;;;;9.60;5.50;;;19.30;99.90;;;;;;5061740;28;20237;-50
2022/05/21 11:24:22;;;;;;;7.55;5.15;;;19.20;99.90;;;;;;5067830;28;20205;-51
2022/05/21 11:26:55;;;;;;;8.13;4.65;;;19.20;99.90;;;;;;5065548;28;20237;-51
2022/05/21 11:29:36;;;;;;;6.88;4.88;;;19.10;99.90;;;;;;5063555;28;20206;-51
2022/05/21 11:37:48;;;;;;;5.70;4.47;;;19.30;99.90;;;;;;5069653;28;20674;-51
2022/05/21 11:40:50;;;;;;;5.50;4.70;;;19.30;99.90;;;;;;5070587;28;20257;-51
2022/05/21 11:43:21;;;;;;;8.48;4.75;;;19.50;99.90;;;;;;5066658;28;20212;-52
2022/05/21 11:46:01;;;;;;;8.38;5.30;;;19.60;99.90;;;;;;5070543;28;20212;-51
2022/05/21 11:48:30;;;;;;;6.28;4.38;;;19.70;99.90;;;;;;5068665;28;20241;-51
2022/05/21 11:51:25;;;;;;;8.02;4.75;;;19.90;99.90;;;;;;5069481;28;20233;-52
2022/05/21 11:53:53;;;;;;;5.38;4.05;;;20.10;99.90;;;;;;5070704;28;20633;-51
2022/05/21 11:56:23;;;;;;;6.13;4.10;;;20.20;99.90;;;;;;5069978;28;20266;-52
2022/05/21 11:59:16;;;;;;;6.90;4.03;;;20.30;99.90;;;;;;5066453;28;20217;-51
2022/05/21 12:02:00;;;;;;;5.72;3.50;;;20.30;99.90;;;;;;5052405;28;20717;-52
2022/05/21 12:04:52;;;;;;;4.60;3.10;;;20.20;99.90;;;;;;5067010;28;20708;-52
2022/05/21 12:08:03;;;;;;;6.20;3.65;;;20.20;99.90;;;;;;5070264;28;20213;-51
2022/05/21 12:10:55;;;;;;;5.82;3.75;;;20.10;99.90;;;;;;5067420;28;20256;-52
2022/05/21 12:13:49;;;;;;;5.32;3.53;;;20.00;99.90;;;;;;5069475;28;20212;-51
2022/05/21 12:16:50;;;;;;;6.35;3.65;;;19.90;99.90;;;;;;5069777;28;20312;-52
2022/05/21 12:20:07;;;;;;;7.07;3.65;;;19.90;99.90;;;;;;5067805;28;20213;-52
2022/05/21 12:22:54;;;;;;;7.80;3.35;;;19.80;99.90;;;;;;5067481;28;20258;-52
2022/05/21 12:25:59;;;;;;;4.95;3.53;;;19.80;99.90;;;;;;5070691;28;20292;-51
2022/05/21 12:28:37;;;;;;;7.22;3.60;;;20.00;99.90;;;;;;5006917;28;20261;-52
2022/05/21 12:31:09;;;;;;;7.82;3.88;;;20.30;99.90;;;;;;5007877;28;20234;-51
2022/05/21 12:33:43;;;;;;;8.02;3.80;;;20.30;99.90;;;;;;5040453;28;20207;-52
2022/05/21 12:36:29;;;;;;;7.00;3.28;;;20.30;99.90;;;;;;5064139;28;20892;-52
2022/05/21 12:39:02;;;;;;;6.93;3.35;;;20.20;99.90;;;;;;5068839;28;20266;-51
2022/05/21 12:41:36;;;;;;;5.78;3.45;;;20.10;99.90;;;;;;5069643;28;20233;-51
2022/05/21 12:44:05;;;;;;;6.07;3.47;;;20.00;99.90;;;;;;5068582;28;20208;-51
2022/05/21 12:46:35;;;;;;;9.07;4.07;;;19.90;99.90;;;;;;5069726;28;20201;-51
2022/05/21 12:49:08;;;;;;;7.22;3.45;;;20.00;99.90;;;;;;5068324;28;20209;-51
2022/05/21 12:51:40;;;;;;;4.82;3.30;;;20.00;99.90;;;;;;5070443;28;20298;-51
2022/05/21 12:54:20;;;;;;;8.15;4.10;;;19.90;99.90;;;;;;5062915;28;20204;-51
2022/05/21 12:56:49;;;;;;;8.45;4.38;;;19.80;99.90;;;;;;5057655;28;20728;-52
2022/05/21 12:59:20;;;;;;;5.20;3.63;;;19.80;99.90;;;;;;5056530;28;20201;-52
2022/05/21 13:01:58;;;;;;;8.50;3.63;;;20.10;99.90;;;;;;5067047;28;20254;-52
2022/05/21 13:04:29;;;;;;;7.80;3.65;;;20.30;99.90;;;;;;5062840;28;20259;-52
2022/05/21 13:07:04;;;;;;;9.70;3.65;;;20.20;99.90;;;;;;5066708;28;20212;-52
2022/05/21 13:09:38;;;;;;;4.88;3.35;;;20.30;99.90;;;;;;5068529;28;20201;-51
2022/05/21 13:12:14;;;;;;;5.28;3.60;;;20.20;99.90;;;;;;5060451;28;20266;-51
2022/05/21 13:14:43;;;;;;;5.07;3.65;;;20.10;99.90;;;;;;5060070;28;20230;-52
2022/05/21 13:17:26;;;;;;;7.30;3.70;;;20.30;99.90;;;;;;5065829;28;20716;-51
2022/05/21 13:20:11;;;;;;;7.25;3.65;;;20.40;99.90;;;;;;5066222;28;20245;-52
2022/05/21 13:23:07;;;;;;;6.32;3.42;;;20.60;99.90;;;;;;5068741;28;20581;-51
2022/05/21 13:25:36;;;;;;;5.18;3.05;;;20.60;99.90;;;;;;5068037;28;20304;-52
2022/05/21 13:28:16;;;;;;;6.78;3.33;;;20.40;99.90;;;;;;5069174;28;20209;-51
2022/05/21 13:30:47;;;;;;;5.55;3.10;;;20.40;99.90;;;;;;5065702;28;20236;-51
2022/05/21 13:33:32;;;;;;;6.25;3.38;;;20.30;99.90;;;;;;5065605;28;20205;-51
2022/05/21 13:36:04;;;;;;;7.30;3.00;;;20.20;99.90;;;;;;5063899;28;21004;-51
2022/05/21 13:38:34;;;;;;;5.43;3.30;;;20.00;99.90;;;;;;5063327;28;20226;-51
2022/05/21 13:41:09;;;;;;;6.88;3.20;;;19.90;99.90;;;;;;5064851;28;20226;-51
2022/05/21 13:43:42;;;;;;;6.15;2.95;;;20.00;99.90;;;;;;5065115;28;20638;-51
2022/05/21 13:46:11;;;;;;;3.10;2.53;;;20.10;99.90;;;;;;5069794;28;20255;-52